Time;durP1;ratioP1;P1;durP2;ratioP2;P2;SDS_P1;SDS_P2;PMS_P1;PMS_P2;Temp;Humidity;BMP_temperature;BMP_pressure;BME280_temperature;BME280_humidity;BME280_pressure;Samples;Min_cycle;Max_cycle;Signal;HPM_P1;HPM_P2
2023/09/08 00:00:21;;;;;;;9.27;5.15;;;21.00;99.90;;;;;;4248016;27;20065;-80
2023/09/08 00:02:25;;;;;;;7.47;4.85;;;20.90;99.90;;;;;;4249130;27;20047;-79
2023/09/08 00:04:26;;;;;;;10.73;5.50;;;20.90;99.90;;;;;;4249046;27;20046;-80
2023/09/08 00:06:26;;;;;;;7.07;4.20;;;20.90;99.90;;;;;;4229970;28;20070;-80
2023/09/08 00:08:27;;;;;;;7.45;4.78;;;20.90;99.90;;;;;;4237243;27;20117;-80
2023/09/08 00:10:28;;;;;;;7.10;4.65;;;20.90;99.90;;;;;;4229785;28;20071;-80
2023/09/08 00:12:29;;;;;;;7.88;4.90;;;20.80;99.90;;;;;;4260705;27;20027;-78
2023/09/08 00:14:29;;;;;;;6.38;4.90;;;20.80;99.90;;;;;;4249729;27;20471;-80
2023/09/08 00:16:30;;;;;;;8.65;4.90;;;20.70;99.90;;;;;;4248356;27;20105;-80
2023/09/08 00:18:31;;;;;;;10.27;4.95;;;20.70;99.90;;;;;;4248583;27;20198;-80
2023/09/08 00:20:32;;;;;;;7.60;4.47;;;20.70;99.90;;;;;;4247828;27;20043;-80
2023/09/08 00:22:33;;;;;;;6.03;4.05;;;20.70;99.90;;;;;;4229892;28;20519;-80
2023/09/08 00:24:34;;;;;;;10.10;4.85;;;20.60;99.90;;;;;;4247257;27;20031;-79
2023/09/08 00:26:34;;;;;;;7.53;4.47;;;20.60;99.90;;;;;;4243363;27;20145;-80
2023/09/08 00:28:35;;;;;;;6.13;4.70;;;20.60;99.90;;;;;;4255446;27;20043;-80
2023/09/08 00:30:36;;;;;;;7.40;4.40;;;20.60;99.90;;;;;;4248368;28;20046;-80
2023/09/08 00:32:37;;;;;;;6.55;4.63;;;20.60;99.90;;;;;;4249416;28;20410;-80
2023/09/08 00:34:39;;;;;;;7.82;4.85;;;20.50;99.90;;;;;;4252981;28;20043;-80
2023/09/08 00:36:40;;;;;;;7.38;4.57;;;20.40;99.90;;;;;;4248656;28;20043;-80
2023/09/08 00:38:41;;;;;;;6.45;4.30;;;20.40;99.90;;;;;;4248605;28;20514;-80
2023/09/08 00:40:42;;;;;;;9.98;5.00;;;20.40;99.90;;;;;;4247945;28;20049;-80
2023/09/08 00:42:42;;;;;;;6.40;4.65;;;20.40;99.90;;;;;;4248100;28;20459;-80
2023/09/08 00:44:43;;;;;;;6.40;4.75;;;20.30;99.90;;;;;;4227406;28;20118;-80
2023/09/08 00:46:44;;;;;;;11.48;5.47;;;20.30;99.90;;;;;;4247934;28;20122;-80
2023/09/08 00:48:45;;;;;;;7.55;4.40;;;20.30;99.90;;;;;;4247727;28;20043;-80
2023/09/08 00:50:46;;;;;;;7.70;4.65;;;20.30;99.90;;;;;;4247631;28;20216;-80
2023/09/08 00:52:47;;;;;;;7.63;4.63;;;20.20;99.90;;;;;;4247829;28;20054;-80
2023/09/08 00:54:48;;;;;;;7.63;5.00;;;20.20;99.90;;;;;;4247596;28;20050;-80
2023/09/08 00:56:55;;;;;;;8.02;4.90;;;20.10;99.90;;;;;;4247500;28;20414;-80
2023/09/08 00:58:55;;;;;;;6.80;4.22;;;20.10;99.90;;;;;;4247548;28;20047;-80
2023/09/08 01:00:59;;;;;;;8.18;4.60;;;20.10;99.90;;;;;;4241415;28;20044;-80
2023/09/08 01:03:00;;;;;;;5.93;4.50;;;20.10;99.90;;;;;;4231116;28;20536;-80
2023/09/08 01:05:01;;;;;;;8.27;5.50;;;20.10;99.90;;;;;;4212580;28;20078;-80
2023/09/08 01:07:03;;;;;;;10.40;5.10;;;20.10;99.90;;;;;;4230292;28;20094;-80
2023/09/08 01:09:04;;;;;;;8.43;4.68;;;20.00;99.90;;;;;;4231639;28;20036;-80
2023/09/08 01:11:06;;;;;;;7.03;5.03;;;20.00;99.90;;;;;;4234184;28;20480;-80
2023/09/08 01:13:07;;;;;;;8.98;5.15;;;19.90;99.90;;;;;;4234215;28;20480;-80
2023/09/08 01:15:08;;;;;;;8.82;4.88;;;19.90;99.90;;;;;;4233018;28;20100;-80
2023/09/08 01:17:09;;;;;;;8.02;5.13;;;19.80;99.90;;;;;;4233781;28;20043;-80
2023/09/08 01:19:14;;;;;;;10.52;4.90;;;19.80;99.90;;;;;;4233759;27;20372;-80
2023/09/08 01:21:22;;;;;;;8.13;5.82;;;19.80;99.90;;;;;;4232237;28;20066;-79
2023/09/08 01:23:40;;;;;;;7.43;5.28;;;19.70;99.90;;;;;;4232383;28;20055;-80
2023/09/08 01:25:54;;;;;;;7.85;4.93;;;19.70;99.90;;;;;;4250500;27;20371;-80
2023/09/08 01:28:00;;;;;;;9.65;5.10;;;19.60;99.90;;;;;;4250504;27;20039;-80
2023/09/08 01:30:03;;;;;;;10.95;4.95;;;19.60;99.90;;;;;;4250609;27;20061;-80
2023/09/08 01:32:05;;;;;;;9.65;5.03;;;19.60;99.90;;;;;;4250522;27;20058;-80
2023/09/08 01:34:06;;;;;;;10.48;5.50;;;19.50;99.90;;;;;;4250761;27;20043;-80
2023/09/08 01:36:08;;;;;;;7.63;5.28;;;19.50;99.90;;;;;;4232216;28;20445;-80
2023/09/08 01:38:09;;;;;;;11.05;5.07;;;19.50;99.90;;;;;;4247298;27;20178;-80
2023/09/08 01:40:10;;;;;;;13.52;5.63;;;19.50;99.90;;;;;;4247128;27;20433;-80
2023/09/08 01:42:14;;;;;;;9.82;5.13;;;19.50;99.90;;;;;;4250507;27;20039;-80
2023/09/08 01:44:15;;;;;;;7.07;4.97;;;19.40;99.90;;;;;;4250399;27;20039;-80
2023/09/08 01:46:15;;;;;;;7.13;4.85;;;19.40;99.90;;;;;;4250435;27;20057;-80
2023/09/08 01:48:16;;;;;;;8.50;5.45;;;19.40;99.90;;;;;;4250477;27;20050;-80
2023/09/08 01:50:21;;;;;;;8.05;5.40;;;19.30;99.90;;;;;;4250021;27;20031;-80
2023/09/08 01:52:22;;;;;;;9.63;5.43;;;19.30;99.90;;;;;;4250531;27;20110;-80
2023/09/08 01:54:23;;;;;;;8.57;5.40;;;19.30;99.90;;;;;;4250181;27;20087;-80
2023/09/08 01:56:24;;;;;;;7.50;5.55;;;19.30;99.90;;;;;;4230077;28;20062;-80
2023/09/08 01:58:25;;;;;;;8.43;5.05;;;19.30;99.90;;;;;;4232009;28;20119;-80
2023/09/08 02:00:26;;;;;;;8.43;5.25;;;19.20;99.90;;;;;;4249829;27;20047;-80
2023/09/08 02:02:26;;;;;;;8.32;5.15;;;19.20;99.90;;;;;;4232027;28;20056;-80
2023/09/08 02:04:27;;;;;;;10.95;5.43;;;19.20;99.90;;;;;;4250328;27;20043;-80
2023/09/08 02:06:28;;;;;;;8.43;5.70;;;19.20;99.90;;;;;;4250135;27;20043;-80
2023/09/08 02:08:28;;;;;;;11.02;5.20;;;19.10;99.90;;;;;;4222166;28;20040;-80
2023/09/08 02:10:29;;;;;;;9.82;6.00;;;19.10;99.90;;;;;;4214676;28;20178;-80
2023/09/08 02:12:30;;;;;;;9.32;5.32;;;19.10;99.90;;;;;;4233363;27;20453;-80
2023/09/08 02:14:31;;;;;;;6.55;5.20;;;19.00;99.90;;;;;;4231227;28;20050;-80
2023/09/08 02:16:31;;;;;;;9.63;5.20;;;19.00;99.90;;;;;;4231455;28;20058;-80
2023/09/08 02:18:32;;;;;;;11.48;5.82;;;18.90;99.90;;;;;;4231732;28;20503;-80
2023/09/08 02:20:33;;;;;;;8.30;5.93;;;18.90;99.90;;;;;;4230143;28;20047;-80
2023/09/08 02:22:34;;;;;;;10.85;6.25;;;18.90;99.90;;;;;;4249866;27;20164;-80
2023/09/08 02:24:34;;;;;;;7.78;5.05;;;18.90;99.90;;;;;;4231817;28;20134;-80
2023/09/08 02:26:35;;;;;;;8.88;4.95;;;18.90;99.90;;;;;;4214526;28;20072;-80
2023/09/08 02:28:36;;;;;;;6.53;4.95;;;18.90;99.90;;;;;;4231386;28;20507;-80
2023/09/08 02:30:38;;;;;;;9.13;5.45;;;18.80;99.90;;;;;;4212500;28;20083;-80
2023/09/08 02:32:42;;;;;;;7.25;5.20;;;18.70;99.90;;;;;;4217051;28;20050;-80
2023/09/08 02:34:43;;;;;;;8.02;5.88;;;18.70;99.90;;;;;;4214795;28;20051;-80
2023/09/08 02:36:46;;;;;;;12.80;6.32;;;18.80;99.90;;;;;;4214554;28;20048;-80
2023/09/08 02:38:47;;;;;;;12.48;5.65;;;18.70;99.90;;;;;;4214017;28;20492;-80
2023/09/08 02:40:47;;;;;;;7.68;5.57;;;18.70;99.90;;;;;;4232277;28;20055;-80
2023/09/08 02:42:48;;;;;;;8.52;5.50;;;18.70;99.90;;;;;;4232653;28;20116;-82
2023/09/08 02:44:49;;;;;;;8.55;5.90;;;18.70;99.90;;;;;;4214337;28;20492;-80
2023/09/08 02:46:50;;;;;;;9.27;4.88;;;18.70;99.90;;;;;;4217433;28;20044;-80
2023/09/08 02:48:51;;;;;;;12.52;5.88;;;18.60;99.90;;;;;;4232415;28;20036;-80
2023/09/08 02:50:53;;;;;;;9.82;6.20;;;18.60;99.90;;;;;;4213728;28;20561;-80
2023/09/08 02:52:54;;;;;;;8.98;6.05;;;18.50;99.90;;;;;;4214358;28;20048;-80
2023/09/08 02:54:54;;;;;;;9.02;5.75;;;18.50;99.90;;;;;;4230912;28;20043;-80
2023/09/08 02:56:55;;;;;;;11.43;5.93;;;18.50;99.90;;;;;;4214279;28;20178;-80
2023/09/08 02:58:56;;;;;;;11.90;6.38;;;18.50;99.90;;;;;;4231102;28;20043;-79
2023/09/08 03:00:57;;;;;;;10.55;6.05;;;18.40;99.90;;;;;;4249329;27;20035;-80
2023/09/08 03:02:57;;;;;;;11.00;6.72;;;18.40;99.90;;;;;;4243265;27;20099;-80
2023/09/08 03:04:58;;;;;;;10.60;6.25;;;18.40;99.90;;;;;;4249034;27;20127;-80
2023/09/08 03:06:59;;;;;;;11.63;6.45;;;18.40;99.90;;;;;;4230930;28;20050;-80
2023/09/08 03:09:00;;;;;;;7.75;5.53;;;18.30;99.90;;;;;;4230547;28;20044;-80
2023/09/08 03:11:01;;;;;;;10.02;6.28;;;18.30;99.90;;;;;;4230740;28;20051;-80
2023/09/08 03:13:02;;;;;;;7.93;5.35;;;18.30;99.90;;;;;;4249209;27;20471;-80
2023/09/08 03:15:04;;;;;;;13.75;7.03;;;18.20;99.90;;;;;;4230357;28;20054;-80
2023/09/08 03:17:04;;;;;;;11.38;6.45;;;18.30;99.90;;;;;;4230627;28;20047;-80
2023/09/08 03:19:05;;;;;;;9.43;6.00;;;18.20;99.90;;;;;;4230479;28;20055;-80
2023/09/08 03:21:10;;;;;;;8.80;5.80;;;18.20;99.90;;;;;;4224910;28;20043;-80
2023/09/08 03:23:11;;;;;;;11.85;6.57;;;18.20;99.90;;;;;;4232108;28;20534;-80
2023/09/08 03:25:14;;;;;;;9.10;5.97;;;18.20;99.90;;;;;;4230312;28;20130;-80
2023/09/08 03:27:14;;;;;;;9.35;6.40;;;18.20;99.90;;;;;;4231923;28;20522;-80
2023/09/08 03:29:15;;;;;;;11.32;6.38;;;18.10;99.90;;;;;;4231730;28;20048;-80
2023/09/08 03:31:16;;;;;;;10.00;7.53;;;18.10;99.90;;;;;;4213088;28;20048;-80
2023/09/08 03:33:17;;;;;;;12.02;6.38;;;18.10;99.90;;;;;;4230019;28;20593;-80
2023/09/08 03:35:18;;;;;;;10.30;6.32;;;18.10;99.90;;;;;;4230677;28;20465;-80
2023/09/08 03:37:18;;;;;;;9.15;6.40;;;18.00;99.90;;;;;;4230437;28;20050;-80
2023/09/08 03:39:19;;;;;;;8.63;6.28;;;18.00;99.90;;;;;;4224597;28;20039;-80
2023/09/08 03:41:21;;;;;;;13.10;7.03;;;17.90;99.90;;;;;;4230178;28;20412;-80
2023/09/08 03:43:22;;;;;;;8.55;6.53;;;17.90;99.90;;;;;;4213514;28;20051;-81
2023/09/08 03:45:23;;;;;;;14.85;6.47;;;17.90;99.90;;;;;;4231205;28;20487;-80
2023/09/08 03:47:24;;;;;;;11.80;6.10;;;17.90;99.90;;;;;;4230095;28;20039;-80
2023/09/08 03:49:25;;;;;;;8.80;6.38;;;17.90;99.90;;;;;;4230863;28;20092;-80
2023/09/08 03:51:29;;;;;;;8.32;6.03;;;17.90;99.90;;;;;;4214391;28;20048;-80
2023/09/08 03:53:30;;;;;;;12.63;6.53;;;17.90;99.90;;;;;;4213329;28;20143;-80
2023/09/08 03:55:31;;;;;;;15.35;6.68;;;17.90;99.90;;;;;;4214185;28;20040;-80
2023/09/08 03:57:32;;;;;;;9.60;5.97;;;17.90;99.90;;;;;;4221779;28;20126;-80
2023/09/08 03:59:32;;;;;;;10.07;6.70;;;17.80;99.90;;;;;;4217963;28;20396;-80
2023/09/08 04:01:33;;;;;;;11.50;6.57;;;17.80;99.90;;;;;;4196318;28;20049;-80
2023/09/08 04:03:34;;;;;;;9.55;6.38;;;17.80;99.90;;;;;;4214197;28;20072;-80
2023/09/08 04:05:34;;;;;;;9.55;6.10;;;17.80;99.90;;;;;;4215965;28;20047;-80
2023/09/08 04:07:35;;;;;;;9.68;6.63;;;17.80;99.90;;;;;;4214607;28;20040;-80
2023/09/08 04:09:36;;;;;;;12.52;7.22;;;17.70;99.90;;;;;;4214270;28;20177;-80
2023/09/08 04:11:36;;;;;;;10.38;6.38;;;17.70;99.90;;;;;;4214095;28;20496;-80
2023/09/08 04:13:37;;;;;;;12.95;7.07;;;17.70;99.90;;;;;;4215050;28;20468;-80
2023/09/08 04:15:38;;;;;;;11.02;6.90;;;17.60;99.90;;;;;;4223745;28;20430;-80
2023/09/08 04:17:39;;;;;;;9.68;6.65;;;17.60;99.90;;;;;;4230470;28;20044;-80
2023/09/08 04:19:40;;;;;;;11.45;6.57;;;17.60;99.90;;;;;;4231235;28;20525;-80
2023/09/08 04:21:41;;;;;;;8.10;6.30;;;17.60;99.90;;;;;;4233175;28;20042;-80
2023/09/08 04:23:42;;;;;;;10.30;6.88;;;17.50;99.90;;;;;;4248286;27;20096;-81
2023/09/08 04:25:42;;;;;;;11.18;6.47;;;17.50;99.90;;;;;;4248118;27;20035;-81
2023/09/08 04:27:44;;;;;;;10.88;7.15;;;17.50;99.90;;;;;;4248058;27;20081;-81
2023/09/08 04:29:45;;;;;;;11.63;7.07;;;17.50;99.90;;;;;;4248182;27;20103;-82
2023/09/08 04:31:46;;;;;;;11.07;7.03;;;17.50;99.90;;;;;;4249128;28;20046;-82
2023/09/08 04:33:46;;;;;;;10.73;6.40;;;17.50;99.90;;;;;;4229544;28;20074;-82
2023/09/08 04:35:47;;;;;;;13.18;6.68;;;17.40;99.90;;;;;;4247939;28;20047;-79
2023/09/08 04:37:48;;;;;;;16.92;6.75;;;17.50;99.90;;;;;;4247873;28;20050;-79
2023/09/08 04:39:50;;;;;;;9.05;6.40;;;17.40;99.90;;;;;;4242055;28;20038;-80
2023/09/08 04:41:50;;;;;;;10.07;7.35;;;17.40;99.90;;;;;;4247939;28;20051;-80
2023/09/08 04:43:51;;;;;;;14.02;7.28;;;17.40;99.90;;;;;;4248767;27;20039;-80
2023/09/08 04:45:52;;;;;;;16.70;7.07;;;17.40;99.90;;;;;;4251170;27;20495;-80
2023/09/08 04:47:52;;;;;;;11.70;6.20;;;17.40;99.90;;;;;;4251383;27;20085;-80
2023/09/08 04:49:53;;;;;;;10.35;6.65;;;17.40;99.90;;;;;;4250978;27;20152;-80
2023/09/08 04:51:54;;;;;;;11.25;7.57;;;17.40;99.90;;;;;;4251330;27;20506;-80
2023/09/08 04:53:54;;;;;;;12.82;7.05;;;17.30;99.90;;;;;;4232515;28;20044;-80
2023/09/08 04:55:55;;;;;;;10.45;7.18;;;17.30;99.90;;;;;;4245429;27;20077;-79
2023/09/08 04:57:56;;;;;;;11.95;6.80;;;17.30;99.90;;;;;;4250724;27;20086;-80
2023/09/08 04:59:57;;;;;;;11.80;7.63;;;17.30;99.90;;;;;;4250881;27;20118;-80
2023/09/08 05:01:57;;;;;;;12.02;7.80;;;17.90;99.90;;;;;;4240638;27;20503;-80
2023/09/08 05:04:01;;;;;;;13.68;7.28;;;17.30;99.90;;;;;;4249839;27;20050;-80
2023/09/08 05:06:02;;;;;;;11.73;7.40;;;17.30;99.90;;;;;;4251171;27;20043;-80
2023/09/08 05:08:09;;;;;;;13.88;8.07;;;17.00;99.90;;;;;;4253896;27;20047;-79
2023/09/08 05:10:10;;;;;;;13.20;7.93;;;17.20;99.90;;;;;;4256444;27;20043;-80
2023/09/08 05:12:11;;;;;;;12.07;7.53;;;17.20;99.90;;;;;;4231106;27;20408;-79
2023/09/08 05:14:12;;;;;;;13.70;7.72;;;17.20;99.90;;;;;;4250741;27;20046;-79
2023/09/08 05:16:13;;;;;;;11.68;7.22;;;17.20;99.90;;;;;;4253835;27;20055;-79
2023/09/08 05:18:14;;;;;;;13.88;6.93;;;17.20;99.90;;;;;;4224074;28;20110;-81
2023/09/08 05:20:14;;;;;;;10.82;7.38;;;17.20;99.90;;;;;;4254210;27;20070;-81
2023/09/08 05:22:17;;;;;;;10.10;7.10;;;17.20;99.90;;;;;;4243970;28;20498;-81
2023/09/08 05:24:18;;;;;;;11.40;7.13;;;17.20;99.90;;;;;;4245816;28;20044;-81
2023/09/08 05:26:18;;;;;;;10.88;7.20;;;17.20;99.90;;;;;;4265909;27;20075;-82
2023/09/08 05:28:19;;;;;;;10.77;7.90;;;17.20;99.90;;;;;;4258281;27;20052;-82
2023/09/08 05:30:20;;;;;;;11.82;7.50;;;17.20;99.90;;;;;;4253587;27;20031;-83
2023/09/08 05:32:21;;;;;;;9.90;7.05;;;17.20;99.90;;;;;;4244749;27;20050;-83
2023/09/08 05:34:23;;;;;;;13.02;7.88;;;17.20;99.90;;;;;;4241064;28;20069;-83
2023/09/08 05:36:24;;;;;;;9.98;7.35;;;18.80;99.90;;;;;;4252156;27;20043;-83
2023/09/08 05:38:25;;;;;;;11.20;7.05;;;17.20;99.90;;;;;;4242891;28;20044;-82
2023/09/08 05:40:26;;;;;;;10.38;7.13;;;17.20;99.90;;;;;;4266503;27;20414;-82
2023/09/08 05:42:27;;;;;;;15.23;7.78;;;17.20;99.90;;;;;;4262645;27;20043;-82
2023/09/08 05:44:27;;;;;;;11.32;7.47;;;17.40;99.90;;;;;;4253390;27;20050;-81
2023/09/08 05:46:28;;;;;;;11.73;7.47;;;17.30;99.90;;;;;;4241608;27;20035;-81
2023/09/08 05:48:29;;;;;;;12.15;8.18;;;17.30;99.90;;;;;;4250358;27;20398;-81
2023/09/08 05:50:30;;;;;;;15.18;8.05;;;17.30;99.90;;;;;;4249884;27;20076;-80
2023/09/08 05:52:33;;;;;;;17.60;8.15;;;17.30;99.90;;;;;;4250518;27;20459;-80
2023/09/08 05:54:34;;;;;;;12.10;7.60;;;17.30;99.90;;;;;;4250083;27;20420;-80
2023/09/08 05:56:37;;;;;;;14.38;7.88;;;17.30;99.90;;;;;;4243401;27;20395;-81
2023/09/08 05:58:38;;;;;;;15.95;8.10;;;17.30;99.90;;;;;;4234356;28;20044;-81
2023/09/08 06:00:38;;;;;;;12.77;8.32;;;17.30;99.90;;;;;;4233362;28;20441;-81
2023/09/08 06:02:39;;;;;;;13.80;8.68;;;17.30;99.90;;;;;;4202938;28;20052;-82
2023/09/08 06:04:40;;;;;;;18.25;8.45;;;17.30;99.90;;;;;;4233063;28;20040;-83
2023/09/08 06:06:43;;;;;;;12.30;8.18;;;17.40;99.90;;;;;;4215917;28;20040;-81
2023/09/08 06:09:02;;;;;;;15.27;8.80;;;17.40;99.90;;;;;;4251162;27;20050;-82
2023/09/08 06:11:03;;;;;;;17.90;9.38;;;17.80;99.90;;;;;;4254302;27;20474;-83
2023/09/08 06:13:04;;;;;;;11.60;7.85;;;17.40;99.90;;;;;;4233696;28;20050;-82
2023/09/08 06:15:06;;;;;;;12.32;8.20;;;17.40;99.90;;;;;;4250292;27;20236;-81
2023/09/08 06:17:07;;;;;;;12.80;7.95;;;17.40;99.90;;;;;;4250408;27;20043;-82
2023/09/08 06:19:08;;;;;;;15.40;8.75;;;17.50;99.90;;;;;;4250590;27;20454;-81
2023/09/08 06:21:09;;;;;;;14.18;8.20;;;17.50;99.90;;;;;;4250103;27;20089;-81
2023/09/08 06:23:10;;;;;;;15.10;9.00;;;17.60;99.90;;;;;;4229780;28;20051;-81
2023/09/08 06:25:11;;;;;;;14.18;8.68;;;17.60;99.90;;;;;;4215703;28;20126;-83
2023/09/08 06:27:13;;;;;;;14.68;8.43;;;17.70;99.90;;;;;;4234104;28;20036;-82
2023/09/08 06:29:15;;;;;;;14.20;8.40;;;17.70;99.90;;;;;;4234876;27;20558;-82
2023/09/08 06:31:16;;;;;;;14.98;7.53;;;17.80;99.90;;;;;;4234125;28;20058;-81
2023/09/08 06:33:17;;;;;;;14.45;8.50;;;17.90;99.90;;;;;;4233034;28;20040;-81
2023/09/08 06:35:17;;;;;;;18.00;8.52;;;17.90;99.90;;;;;;4231390;28;20043;-82
2023/09/08 06:37:18;;;;;;;19.15;8.23;;;18.00;99.90;;;;;;4234008;28;20043;-81
2023/09/08 06:39:20;;;;;;;17.55;8.10;;;18.10;99.90;;;;;;4233174;28;20079;-81
2023/09/08 06:41:23;;;;;;;14.30;9.07;;;18.20;99.90;;;;;;4198134;28;20044;-81
2023/09/08 06:43:24;;;;;;;13.95;8.20;;;18.30;99.90;;;;;;4233580;28;20051;-81
2023/09/08 06:45:26;;;;;;;16.50;8.13;;;18.30;99.90;;;;;;4217438;28;20048;-82
2023/09/08 06:47:26;;;;;;;14.55;7.47;;;18.40;99.90;;;;;;4236013;28;20402;-81
2023/09/08 06:49:27;;;;;;;13.23;8.18;;;18.50;99.90;;;;;;4236541;28;20070;-81
2023/09/08 06:51:28;;;;;;;10.05;7.05;;;18.60;99.90;;;;;;4249821;28;20028;-81
2023/09/08 06:53:30;;;;;;;16.35;8.82;;;18.70;99.90;;;;;;4249727;28;20044;-81
2023/09/08 06:55:31;;;;;;;12.00;7.82;;;18.90;99.90;;;;;;4247555;28;20080;-81
2023/09/08 06:57:32;;;;;;;15.70;8.70;;;19.00;99.90;;;;;;4221665;28;20044;-81
2023/09/08 06:59:33;;;;;;;15.20;8.07;;;19.10;99.90;;;;;;4236365;28;20074;-81
2023/09/08 07:01:35;;;;;;;15.52;7.43;;;19.30;99.90;;;;;;4220736;28;20039;-81
2023/09/08 07:03:36;;;;;;;10.43;6.90;;;19.30;99.90;;;;;;4252492;28;20107;-81
2023/09/08 07:05:39;;;;;;;13.07;7.13;;;19.50;99.90;;;;;;4252391;28;20051;-81
2023/09/08 07:07:40;;;;;;;13.73;6.97;;;19.60;99.90;;;;;;4252267;28;20030;-80
2023/09/08 07:09:41;;;;;;;13.55;7.30;;;19.70;99.90;;;;;;4252212;28;20110;-81
2023/09/08 07:11:42;;;;;;;10.50;7.07;;;19.80;99.90;;;;;;4251218;28;20039;-81
2023/09/08 07:13:42;;;;;;;16.27;8.02;;;20.00;99.90;;;;;;4252410;28;20043;-82
2023/09/08 07:15:44;;;;;;;13.57;6.75;;;20.10;99.90;;;;;;4251527;28;20079;-81
2023/09/08 07:17:45;;;;;;;9.88;6.78;;;20.20;99.90;;;;;;4239924;28;20462;-81
2023/09/08 07:19:46;;;;;;;10.63;6.63;;;20.30;99.90;;;;;;4215323;28;20077;-81
2023/09/08 07:21:47;;;;;;;8.95;6.03;;;20.50;99.90;;;;;;4234464;28;20044;-81
2023/09/08 07:23:47;;;;;;;13.10;6.65;;;20.60;99.90;;;;;;4233735;28;20078;-82
2023/09/08 07:25:49;;;;;;;10.40;6.65;;;20.70;99.90;;;;;;4233221;28;20043;-81
2023/09/08 07:27:52;;;;;;;11.60;6.45;;;20.80;99.90;;;;;;4239065;28;20039;-82
2023/09/08 07:29:54;;;;;;;11.38;6.38;;;21.10;99.90;;;;;;4233251;28;20589;-82
2023/09/08 07:31:55;;;;;;;11.40;6.15;;;21.10;99.90;;;;;;4232834;28;20078;-82
2023/09/08 07:33:55;;;;;;;12.38;6.28;;;21.20;99.90;;;;;;4232472;28;20043;-81
2023/09/08 07:35:56;;;;;;;8.68;5.80;;;21.20;99.90;;;;;;4232753;28;20044;-81
2023/09/08 07:37:57;;;;;;;9.57;6.57;;;21.30;99.90;;;;;;4232380;28;20043;-81
2023/09/08 07:39:58;;;;;;;9.10;6.43;;;21.50;99.90;;;;;;4232624;28;20035;-82
2023/09/08 07:41:59;;;;;;;8.15;5.75;;;21.50;99.90;;;;;;4232606;28;20040;-81
2023/09/08 07:43:59;;;;;;;10.63;6.13;;;21.60;99.90;;;;;;4239749;28;20061;-82
2023/09/08 07:46:00;;;;;;;8.63;5.90;;;21.60;99.90;;;;;;4234608;28;20039;-81
2023/09/08 07:48:01;;;;;;;11.25;6.53;;;21.70;99.90;;;;;;4232968;28;20035;-81
2023/09/08 07:50:19;;;;;;;10.70;6.57;;;21.80;99.90;;;;;;4233107;28;20479;-81
2023/09/08 07:52:20;;;;;;;8.90;6.30;;;22.00;99.90;;;;;;4214841;28;20514;-81
2023/09/08 07:54:21;;;;;;;9.55;6.15;;;22.00;99.90;;;;;;4233369;28;20079;-81
2023/09/08 07:56:22;;;;;;;11.27;6.00;;;22.10;99.90;;;;;;4220234;28;20051;-81
2023/09/08 07:58:23;;;;;;;9.20;5.90;;;22.20;99.90;;;;;;4215272;28;20040;-81
2023/09/08 08:00:23;;;;;;;9.73;5.95;;;22.30;99.90;;;;;;4251455;28;20055;-81
2023/09/08 08:02:24;;;;;;;13.65;6.10;;;22.30;99.90;;;;;;4252341;28;20036;-82
2023/09/08 08:04:25;;;;;;;6.78;4.68;;;22.50;99.90;;;;;;4252631;28;20039;-82
2023/09/08 08:06:27;;;;;;;12.70;6.35;;;22.70;99.90;;;;;;4252290;28;20024;-81
2023/09/08 08:08:27;;;;;;;11.02;5.75;;;22.90;99.90;;;;;;4252545;28;20048;-81
2023/09/08 08:10:29;;;;;;;8.85;6.05;;;23.00;99.90;;;;;;4252785;28;20031;-81
2023/09/08 08:12:30;;;;;;;11.63;5.82;;;23.10;99.90;;;;;;4229687;28;20052;-81
2023/09/08 08:14:31;;;;;;;11.05;5.55;;;23.30;99.90;;;;;;4231850;28;20365;-81
2023/09/08 08:16:32;;;;;;;12.00;5.65;;;23.50;99.90;;;;;;4232059;28;20042;-81
2023/09/08 08:18:32;;;;;;;10.65;5.75;;;23.70;99.90;;;;;;4231792;28;20046;-81
2023/09/08 08:20:36;;;;;;;8.30;5.63;;;23.70;99.90;;;;;;4231599;28;20435;-82
2023/09/08 08:22:37;;;;;;;8.85;5.57;;;23.70;99.90;;;;;;4231620;28;20046;-82
2023/09/08 08:24:38;;;;;;;11.60;5.35;;;23.90;99.90;;;;;;4230672;28;20044;-82
2023/09/08 08:26:38;;;;;;;9.48;5.75;;;23.90;99.90;;;;;;4213198;28;20044;-82
2023/09/08 08:28:39;;;;;;;9.20;5.28;;;24.10;99.90;;;;;;4231284;28;20048;-81
2023/09/08 08:30:41;;;;;;;11.57;5.28;;;24.30;99.90;;;;;;4196505;28;20047;-82
2023/09/08 08:32:41;;;;;;;9.13;5.18;;;24.60;99.90;;;;;;4196016;28;20124;-82
2023/09/08 08:34:42;;;;;;;10.10;4.68;;;24.70;99.90;;;;;;4231127;28;20549;-82
2023/09/08 08:36:43;;;;;;;9.73;5.05;;;24.80;99.90;;;;;;4231191;28;20106;-82
2023/09/08 08:38:44;;;;;;;8.18;5.20;;;24.90;99.90;;;;;;4213174;28;20093;-81
2023/09/08 08:40:45;;;;;;;7.90;5.40;;;25.00;99.90;;;;;;4230931;28;20059;-82
2023/09/08 08:42:46;;;;;;;10.30;4.82;;;25.10;99.90;;;;;;4212904;28;20399;-82
2023/09/08 08:44:47;;;;;;;11.48;4.63;;;25.40;99.90;;;;;;4212913;28;20470;-82
2023/09/08 08:46:48;;;;;;;8.00;4.25;;;25.70;99.90;;;;;;4230751;28;20039;-82
2023/09/08 08:48:54;;;;;;;9.80;4.63;;;26.10;99.90;;;;;;4212964;28;20044;-82
2023/09/08 08:50:56;;;;;;;7.28;4.30;;;26.20;99.90;;;;;;4230958;28;20089;-82
2023/09/08 08:52:57;;;;;;;6.75;4.43;;;26.60;99.90;;;;;;4213081;28;20550;-82
2023/09/08 08:54:59;;;;;;;7.20;4.43;;;26.80;99.90;;;;;;4212812;28;20044;-82
2023/09/08 08:57:01;;;;;;;7.13;4.20;;;27.20;99.90;;;;;;4196140;28;20091;-82
2023/09/08 08:59:02;;;;;;;8.60;5.00;;;27.50;99.90;;;;;;4230783;28;20043;-82
2023/09/08 09:01:04;;;;;;;6.47;4.40;;;28.00;99.90;;;;;;4230852;28;20133;-82
2023/09/08 09:03:08;;;;;;;8.60;3.90;;;28.30;99.90;;;;;;4213317;28;20058;-82
2023/09/08 09:05:13;;;;;;;11.05;4.65;;;29.00;99.90;;;;;;4230923;28;20118;-82
2023/09/08 09:07:13;;;;;;;10.50;3.58;;;29.40;99.90;;;;;;4230706;28;20092;-82
2023/09/08 09:09:15;;;;;;;8.75;4.18;;;29.90;99.90;;;;;;4213202;28;20044;-82
2023/09/08 09:11:16;;;;;;;7.93;4.20;;;30.30;99.90;;;;;;4212418;28;20048;-82
2023/09/08 09:13:17;;;;;;;6.28;3.63;;;30.40;99.30;;;;;;4230377;28;20440;-82
2023/09/08 09:15:29;;;;;;;7.90;3.97;;;30.60;99.20;;;;;;4230469;28;20077;-82
2023/09/08 09:17:30;;;;;;;7.97;4.00;;;30.90;97.90;;;;;;4230954;28;20048;-82
2023/09/08 09:19:31;;;;;;;7.65;4.47;;;31.10;98.10;;;;;;4230752;28;20042;-82
2023/09/08 09:21:47;;;;;;;8.20;3.28;;;31.10;97.60;;;;;;4195775;28;20048;-82
2023/09/08 09:23:49;;;;;;;4.47;3.38;;;31.10;96.80;;;;;;4212770;28;20087;-82
2023/09/08 09:25:50;;;;;;;10.95;3.53;;;31.30;97.10;;;;;;4230756;28;20044;-82
2023/09/08 09:27:58;;;;;;;7.43;3.00;;;31.50;97.10;;;;;;4230130;28;20078;-82
2023/09/08 09:29:59;;;;;;;5.47;3.38;;;31.90;97.30;;;;;;4231658;28;20032;-82
2023/09/08 09:32:08;;;;;;;7.82;3.67;;;32.10;96.20;;;;;;4233962;28;20084;-82
2023/09/08 09:34:09;;;;;;;;;;;32.10;93.40;;;;;;4233769;28;20540;-80
2023/09/08 09:36:09;;;;;;;5.85;3.20;;;32.10;94.60;;;;;;4233917;28;19970;-82
2023/09/08 09:38:11;;;;;;;5.78;3.17;;;32.30;95.20;;;;;;4233694;28;20444;-82
2023/09/08 09:40:11;;;;;;;5.45;3.20;;;32.20;94.00;;;;;;4198742;28;20055;-82
2023/09/08 09:42:12;;;;;;;4.30;2.97;;;32.10;93.50;;;;;;4233142;28;20039;-82
2023/09/08 09:44:14;;;;;;;6.03;2.97;;;31.90;92.50;;;;;;4233575;28;20484;-82
2023/09/08 09:46:15;;;;;;;6.88;3.33;;;31.90;92.80;;;;;;4215349;28;20198;-82
2023/09/08 09:48:18;;;;;;;6.65;3.45;;;32.10;93.10;;;;;;4233423;28;20507;-83
2023/09/08 09:50:35;;;;;;;6.95;3.13;;;32.30;93.20;;;;;;4233425;28;20079;-82
2023/09/08 09:52:39;;;;;;;12.70;3.80;;;32.30;92.80;;;;;;4233724;28;20055;-82
2023/09/08 09:54:42;;;;;;;9.10;3.25;;;32.30;92.80;;;;;;4215257;28;20131;-83
2023/09/08 09:56:44;;;;;;;5.72;3.70;;;32.20;93.20;;;;;;4214834;28;20044;-83
2023/09/08 09:58:45;;;;;;;6.70;3.50;;;32.20;93.00;;;;;;4215404;28;20099;-82
2023/09/08 10:00:47;;;;;;;7.97;3.35;;;32.00;93.00;;;;;;4233290;28;20392;-83
2023/09/08 10:02:49;;;;;;;9.43;3.80;;;32.00;93.90;;;;;;4215188;28;20052;-83
2023/09/08 10:04:50;;;;;;;6.53;3.00;;;32.10;94.30;;;;;;4234169;28;20043;-82
2023/09/08 10:06:52;;;;;;;6.00;3.45;;;32.10;94.60;;;;;;4214957;28;20488;-82
2023/09/08 10:08:54;;;;;;;9.85;3.47;;;32.20;94.20;;;;;;4232598;28;20085;-82
2023/09/08 10:10:55;;;;;;;6.82;3.35;;;32.40;93.90;;;;;;4215162;28;20150;-83
2023/09/08 10:13:05;;;;;;;5.43;3.70;;;32.30;93.20;;;;;;4233695;28;20047;-83
2023/09/08 10:15:06;;;;;;;9.32;3.35;;;32.40;92.80;;;;;;4233116;28;20561;-83
2023/09/08 10:17:14;;;;;;;7.20;3.50;;;32.30;93.30;;;;;;4214910;28;20427;-83
2023/09/08 10:19:16;;;;;;;6.68;3.45;;;32.50;93.60;;;;;;4232562;28;20079;-80
2023/09/08 10:21:21;;;;;;;6.63;3.42;;;32.60;93.40;;;;;;4214928;28;20046;-81
2023/09/08 10:23:37;;;;;;;7.60;3.40;;;32.50;93.20;;;;;;4233061;28;20047;-81
2023/09/08 10:25:43;;;;;;;6.07;3.45;;;32.70;93.20;;;;;;4233169;28;20075;-81
2023/09/08 10:27:44;;;;;;;7.82;3.30;;;32.90;93.60;;;;;;4233074;28;20501;-81
2023/09/08 10:29:45;;;;;;;4.30;3.35;;;32.70;93.50;;;;;;4232543;28;20122;-81